createdAt,value
2023-09-03T00:02:12.845Z,16.89
2023-09-03T00:05:16.022Z,16.92
2023-09-03T00:08:19.843Z,16.92
2023-09-03T00:11:23.174Z,16.83
2023-09-03T00:14:25.903Z,16.80
2023-09-03T00:17:30.134Z,16.86
2023-09-03T00:20:33.026Z,16.90
2023-09-03T00:23:36.075Z,16.92
2023-09-03T00:26:38.983Z,16.95
2023-09-03T00:29:42.013Z,16.98
2023-09-03T00:32:46.340Z,17.02
2023-09-03T00:35:49.398Z,17.05
2023-09-03T00:38:52.308Z,17.05
2023-09-03T00:41:55.206Z,17.07
2023-09-03T00:44:57.990Z,17.06
2023-09-03T00:48:02.707Z,17.06
2023-09-03T00:51:09.571Z,17.10
2023-09-03T00:54:12.364Z,17.11
2023-09-03T00:57:15.728Z,17.11
2023-09-03T01:00:18.783Z,17.13
2023-09-03T01:03:23.461Z,17.03
2023-09-03T01:06:27.099Z,17.06
2023-09-03T01:09:29.961Z,17.10
2023-09-03T01:12:38.310Z,17.13
2023-09-03T01:15:47.170Z,17.13
2023-09-03T01:18:51.768Z,17.17
2023-09-03T01:22:07.266Z,17.20
2023-09-03T01:25:23.727Z,17.22
2023-09-03T01:28:29.270Z,17.22
2023-09-03T01:31:33.131Z,17.20
2023-09-03T01:34:38.106Z,17.19
2023-09-03T01:37:41.325Z,17.19
2023-09-03T01:40:44.285Z,17.16
2023-09-03T01:43:48.472Z,17.16
2023-09-03T01:46:52.201Z,17.16
2023-09-03T01:50:05.106Z,17.14
2023-09-03T01:53:15.052Z,17.08
2023-09-03T01:56:21.789Z,17.03
2023-09-03T01:59:31.752Z,16.98
2023-09-03T02:02:36.602Z,16.93
2023-09-03T02:05:39.876Z,16.90
2023-09-03T02:08:42.610Z,16.85
2023-09-03T02:11:45.444Z,16.84
2023-09-03T02:14:49.624Z,16.82
2023-09-03T02:17:54.588Z,16.80
2023-09-03T02:20:57.575Z,16.78
2023-09-03T02:24:00.364Z,16.75
2023-09-03T02:27:03.223Z,16.74
2023-09-03T02:30:08.715Z,16.72
2023-09-03T02:33:11.397Z,16.71
2023-09-03T02:36:14.249Z,16.70
2023-09-03T02:39:17.090Z,16.69
2023-09-03T02:42:19.957Z,16.66
2023-09-03T02:45:24.106Z,16.61
2023-09-03T02:48:27.016Z,16.59
2023-09-03T02:51:30.042Z,16.57
2023-09-03T02:54:32.786Z,16.50
2023-09-03T02:57:35.711Z,16.49
2023-09-03T03:00:39.818Z,16.46
2023-09-03T03:03:43.282Z,16.46
2023-09-03T03:06:46.145Z,16.45
2023-09-03T03:09:51.090Z,16.46
2023-09-03T03:12:54.078Z,16.43
2023-09-03T03:15:58.207Z,16.43
2023-09-03T03:19:02.878Z,16.42
2023-09-03T03:22:05.925Z,16.43
2023-09-03T03:25:09.443Z,16.42
2023-09-03T03:28:12.291Z,16.41
2023-09-03T03:31:17.564Z,16.40
2023-09-03T03:34:20.628Z,16.38
2023-09-03T03:37:23.561Z,16.34
2023-09-03T03:40:26.277Z,16.34
2023-09-03T03:43:29.326Z,16.31
2023-09-03T03:46:33.466Z,16.27
2023-09-03T03:49:36.316Z,16.26
2023-09-03T03:52:39.217Z,16.28
2023-09-03T03:55:41.955Z,16.28
2023-09-03T03:58:46.288Z,16.22
2023-09-03T04:01:50.468Z,16.20
2023-09-03T04:04:54.701Z,16.16
2023-09-03T04:07:57.598Z,16.10
2023-09-03T04:11:01.012Z,16.06
2023-09-03T04:14:03.941Z,16.09
2023-09-03T04:17:08.152Z,16.10
2023-09-03T04:20:12.461Z,16.13
2023-09-03T04:23:15.338Z,16.13
2023-09-03T04:26:18.135Z,16.11
2023-09-03T04:29:20.984Z,16.12
2023-09-03T04:32:25.159Z,16.12
2023-09-03T04:35:28.189Z,16.10
2023-09-03T04:38:31.856Z,16.09
2023-09-03T04:41:34.570Z,16.09
2023-09-03T04:44:39.163Z,16.10
2023-09-03T04:47:43.543Z,16.11
2023-09-03T04:50:46.510Z,16.07
2023-09-03T04:53:50.443Z,16.07
2023-09-03T04:56:54.820Z,16.10
2023-09-03T04:59:57.690Z,16.13
2023-09-03T05:03:05.435Z,16.12
2023-09-03T05:06:08.632Z,16.13
2023-09-03T05:09:11.377Z,16.10
2023-09-03T05:12:14.245Z,16.10
2023-09-03T05:15:17.067Z,16.15
2023-09-03T05:18:21.334Z,16.21
2023-09-03T05:21:24.500Z,16.21
2023-09-03T05:24:27.211Z,16.29
2023-09-03T05:27:30.811Z,16.41
2023-09-03T05:30:34.773Z,16.50
2023-09-03T05:33:39.031Z,16.51
2023-09-03T05:36:41.856Z,16.60
2023-09-03T05:39:44.698Z,16.63
2023-09-03T05:42:47.570Z,16.68
2023-09-03T05:45:51.124Z,16.70
2023-09-03T05:48:55.275Z,16.67
2023-09-03T05:51:58.094Z,16.73
2023-09-03T05:55:00.797Z,16.81
2023-09-03T05:58:04.180Z,16.84
2023-09-03T06:01:08.180Z,16.91
2023-09-03T06:04:16.167Z,16.92
2023-09-03T06:07:19.073Z,16.97
2023-09-03T06:10:23.361Z,17.13
2023-09-03T06:13:26.432Z,17.14
2023-09-03T06:16:29.466Z,17.21
2023-09-03T06:19:33.587Z,17.30
2023-09-03T06:22:36.439Z,17.30
2023-09-03T06:25:39.323Z,17.43
2023-09-03T06:28:42.218Z,17.52
2023-09-03T06:31:45.089Z,17.49
2023-09-03T06:34:49.185Z,17.77
2023-09-03T06:37:52.255Z,18.47
2023-09-03T06:40:55.250Z,19.33
2023-09-03T06:43:58.119Z,19.74
2023-09-03T06:47:01.009Z,20.02
2023-09-03T06:50:05.463Z,19.84
2023-09-03T06:53:08.325Z,19.84
2023-09-03T06:56:11.060Z,20.43
2023-09-03T06:59:22.462Z,20.33
2023-09-03T07:02:32.083Z,19.97
2023-09-03T07:05:36.268Z,20.04
2023-09-03T07:08:39.107Z,20.68
2023-09-03T07:11:41.806Z,20.30
2023-09-03T07:14:44.809Z,20.20
2023-09-03T07:17:47.699Z,20.17
2023-09-03T07:21:04.480Z,20.14
2023-09-03T07:24:08.339Z,19.99
2023-09-03T07:27:11.223Z,20.03
2023-09-03T07:30:14.237Z,20.28
2023-09-03T07:33:17.142Z,21.08
2023-09-03T07:36:21.255Z,21.93
2023-09-03T07:39:24.120Z,21.55
2023-09-03T07:42:26.982Z,21.73
2023-09-03T07:45:29.714Z,21.72
2023-09-03T07:48:32.804Z,21.72
2023-09-03T07:51:36.910Z,21.88
2023-09-03T07:54:40.404Z,21.59
2023-09-03T07:57:43.341Z,21.60
2023-09-03T08:00:46.529Z,21.33
2023-09-03T08:03:49.470Z,21.42
2023-09-03T08:06:53.622Z,21.62
2023-09-03T08:09:57.062Z,21.82
2023-09-03T08:12:59.821Z,21.98
2023-09-03T08:16:02.614Z,22.44
2023-09-03T08:19:05.717Z,22.52
2023-09-03T08:22:09.796Z,22.77
2023-09-03T08:25:12.714Z,22.78
2023-09-03T08:28:16.130Z,22.86
2023-09-03T08:31:19.193Z,22.69
2023-09-03T08:34:22.122Z,22.56
2023-09-03T08:37:27.964Z,22.59
2023-09-03T08:40:30.952Z,22.56
2023-09-03T08:43:33.814Z,22.87
2023-09-03T08:50:00.905Z,22.62
2023-09-03T08:53:05.725Z,22.58
2023-09-03T08:56:08.737Z,22.94
2023-09-03T08:59:12.288Z,23.14
2023-09-03T09:02:17.531Z,22.97
2023-09-03T09:05:20.647Z,23.31
2023-09-03T09:08:26.001Z,23.82
2023-09-03T09:11:35.748Z,23.50
2023-09-03T09:14:44.318Z,23.36
2023-09-03T09:17:47.151Z,23.46
2023-09-03T09:20:53.029Z,23.46
2023-09-03T09:24:03.376Z,23.31
2023-09-03T09:27:15.385Z,23.39
2023-09-03T09:30:20.487Z,23.18
2023-09-03T09:33:23.854Z,23.16
2023-09-03T09:36:26.981Z,23.15
2023-09-03T09:39:31.118Z,23.48
2023-09-03T09:42:34.137Z,23.62
2023-09-03T09:45:47.902Z,24.24
2023-09-03T09:48:56.227Z,24.80
2023-09-03T09:51:59.119Z,24.76
2023-09-03T09:55:03.524Z,24.90
2023-09-03T09:58:08.505Z,24.53
2023-09-03T10:01:11.406Z,24.42
2023-09-03T10:04:14.330Z,24.70
2023-09-03T10:07:17.929Z,24.75
2023-09-03T10:10:23.168Z,24.99
2023-09-03T10:13:26.170Z,24.99
2023-09-03T10:16:31.715Z,25.10
2023-09-03T10:19:42.263Z,25.47
2023-09-03T10:22:49.555Z,25.32
2023-09-03T10:26:05.317Z,25.36
2023-09-03T10:29:13.070Z,25.61
2023-09-03T10:32:18.188Z,25.93
2023-09-03T10:35:21.168Z,25.79
2023-09-03T10:38:33.412Z,25.95
2023-09-03T10:41:37.527Z,26.19
2023-09-03T10:44:43.478Z,26.50
2023-09-03T10:48:02.882Z,26.77
2023-09-03T10:51:06.988Z,26.62
2023-09-03T10:54:17.582Z,26.93
2023-09-03T10:57:21.706Z,27.26
2023-09-03T11:00:25.844Z,27.32
2023-09-03T11:03:29.650Z,26.86
2023-09-03T11:06:33.637Z,26.71
2023-09-03T11:09:36.517Z,26.54
2023-09-03T11:12:41.125Z,26.73
2023-09-03T11:15:53.435Z,26.43
2023-09-03T11:18:56.652Z,26.61
2023-09-03T11:22:00.407Z,26.56
2023-09-03T11:25:03.991Z,26.28
2023-09-03T11:28:12.521Z,26.00
2023-09-03T11:31:16.115Z,26.04
2023-09-03T11:34:21.401Z,26.32
2023-09-03T11:37:25.808Z,26.00
2023-09-03T11:40:28.775Z,25.85
2023-09-03T11:43:37.012Z,25.91
2023-09-03T11:46:39.921Z,25.87
2023-09-03T11:49:46.355Z,25.90
2023-09-03T11:52:49.764Z,26.05
2023-09-03T11:55:56.559Z,25.91
2023-09-03T11:59:05.869Z,25.77
2023-09-03T12:02:09.888Z,26.38
2023-09-03T12:05:13.487Z,26.22
2023-09-03T12:08:16.404Z,25.93
2023-09-03T12:11:19.422Z,25.93
2023-09-03T12:14:32.963Z,26.04
2023-09-03T12:17:35.959Z,25.75
2023-09-03T12:20:41.164Z,25.63
2023-09-03T12:23:46.844Z,25.64
2023-09-03T12:26:49.860Z,25.21
2023-09-03T12:29:56.534Z,25.42
2023-09-03T12:32:59.449Z,25.92
2023-09-03T12:36:06.213Z,26.00
2023-09-03T12:39:09.140Z,26.30
2023-09-03T12:42:12.726Z,26.27
2023-09-03T12:45:17.040Z,26.28
2023-09-03T12:48:19.889Z,25.65
2023-09-03T12:51:22.593Z,25.83
2023-09-03T12:54:25.834Z,25.67
2023-09-03T12:57:28.762Z,25.42
2023-09-03T13:00:32.955Z,25.50
2023-09-03T13:03:35.899Z,25.44
2023-09-03T13:06:39.183Z,25.32
2023-09-03T13:09:42.043Z,25.39
2023-09-03T13:12:44.775Z,25.45
2023-09-03T13:15:49.113Z,25.28
2023-09-03T13:18:52.248Z,25.33
2023-09-03T13:21:54.971Z,25.34
2023-09-03T13:24:57.892Z,25.12
2023-09-03T13:28:00.587Z,24.98
2023-09-03T13:31:08.483Z,25.13
2023-09-03T13:34:11.814Z,25.04
2023-09-03T13:37:14.609Z,24.73
2023-09-03T13:40:17.547Z,24.96
2023-09-03T13:43:24.007Z,24.90
2023-09-03T13:46:30.585Z,24.71
2023-09-03T13:49:33.574Z,24.89
2023-09-03T13:52:36.752Z,24.91
2023-09-03T13:55:39.658Z,24.88
2023-09-03T13:58:42.423Z,24.83
2023-09-03T14:01:47.165Z,24.80
2023-09-03T14:04:50.276Z,24.88
2023-09-03T14:07:52.969Z,24.71
2023-09-03T14:10:59.164Z,24.55
2023-09-03T14:14:02.014Z,24.40
2023-09-03T14:17:06.211Z,24.50
2023-09-03T14:20:10.033Z,24.21
2023-09-03T14:23:12.988Z,24.16
2023-09-03T14:26:16.429Z,24.12
2023-09-03T14:29:20.262Z,24.19
2023-09-03T14:32:24.451Z,24.13
2023-09-03T14:35:27.348Z,24.38
2023-09-03T14:38:30.054Z,24.08
2023-09-03T14:41:32.986Z,24.00
2023-09-03T14:44:35.906Z,24.01
2023-09-03T14:47:41.025Z,23.99
2023-09-03T14:50:44.215Z,24.06
2023-09-03T14:53:46.940Z,24.01
2023-09-03T14:56:49.824Z,24.04
2023-09-03T14:59:56.158Z,24.00
2023-09-03T15:03:00.339Z,24.01
2023-09-03T15:06:03.241Z,23.85
2023-09-03T15:09:05.969Z,23.75
2023-09-03T15:12:08.952Z,23.67
2023-09-03T15:15:13.247Z,23.51
2023-09-03T15:18:17.319Z,23.49
2023-09-03T15:21:20.337Z,23.51
2023-09-03T15:24:23.048Z,23.65
2023-09-03T15:27:25.953Z,23.80
2023-09-03T15:30:34.090Z,23.63
2023-09-03T15:33:38.312Z,23.56
2023-09-03T15:36:41.201Z,23.58
2023-09-03T15:39:44.025Z,23.36
2023-09-03T15:42:46.905Z,23.40
2023-09-03T15:45:52.033Z,23.34
2023-09-03T15:48:56.253Z,23.15
2023-09-03T15:51:59.116Z,23.27
2023-09-03T15:55:01.813Z,23.15
2023-09-03T15:58:04.916Z,23.14
2023-09-03T16:01:11.072Z,23.08
2023-09-03T16:04:15.161Z,23.08
2023-09-03T16:07:18.702Z,23.12
2023-09-03T16:10:21.595Z,22.99
2023-09-03T16:13:24.533Z,23.01
2023-09-03T16:16:30.219Z,22.97
2023-09-03T16:19:35.472Z,23.02
2023-09-03T16:22:38.384Z,22.86
2023-09-03T16:25:41.138Z,22.82
2023-09-03T16:28:44.098Z,22.83
2023-09-03T16:31:47.004Z,22.67
2023-09-03T16:34:51.842Z,22.59
2023-09-03T16:37:54.754Z,22.51
2023-09-03T16:40:57.659Z,22.51
2023-09-03T16:44:00.525Z,22.41
2023-09-03T16:47:03.417Z,22.40
2023-09-03T16:50:08.790Z,22.40
2023-09-03T16:53:12.736Z,22.32
2023-09-03T16:56:15.463Z,22.26
2023-09-03T16:59:18.325Z,22.16
2023-09-03T17:02:24.377Z,22.14
2023-09-03T17:05:28.633Z,22.04
2023-09-03T17:08:31.501Z,21.98
2023-09-03T17:11:34.253Z,21.86
2023-09-03T17:14:37.131Z,21.81
2023-09-03T17:17:41.444Z,21.75
2023-09-03T17:20:46.779Z,21.67
2023-09-03T17:23:49.706Z,21.60
2023-09-03T17:26:52.438Z,21.52
2023-09-03T17:29:56.451Z,21.44
2023-09-03T17:32:59.198Z,21.35
2023-09-03T17:36:03.540Z,21.25
2023-09-03T17:39:06.536Z,21.18
2023-09-03T17:42:09.323Z,21.10
2023-09-03T17:45:12.230Z,21.01
2023-09-03T17:48:15.140Z,20.92
2023-09-03T17:51:19.308Z,20.88
2023-09-03T17:54:22.353Z,20.80
2023-09-03T17:57:25.293Z,20.72
2023-09-03T18:00:28.236Z,20.69
2023-09-03T18:03:31.212Z,20.62
2023-09-03T18:06:35.940Z,20.54
2023-09-03T18:09:39.000Z,20.44
2023-09-03T18:12:41.733Z,20.36
2023-09-03T18:15:44.663Z,20.30
2023-09-03T18:18:48.094Z,20.24
2023-09-03T18:21:52.290Z,20.16
2023-09-03T18:24:55.152Z,20.08
2023-09-03T18:27:57.888Z,20.03
2023-09-03T18:31:00.758Z,19.95
2023-09-03T18:34:04.186Z,19.90
2023-09-03T18:37:08.434Z,19.80
2023-09-03T18:40:11.927Z,19.73
2023-09-03T18:43:14.842Z,19.64
2023-09-03T18:46:17.752Z,19.58
2023-09-03T18:49:20.496Z,19.54
2023-09-03T18:52:24.767Z,19.47
2023-09-03T18:55:27.608Z,19.42
2023-09-03T18:58:30.388Z,19.29
2023-09-03T19:01:37.226Z,19.21
2023-09-03T19:04:39.997Z,19.13
2023-09-03T19:07:44.234Z,19.10
2023-09-03T19:10:56.458Z,18.97
2023-09-03T19:13:59.323Z,18.80
2023-09-03T19:17:02.210Z,18.77
2023-09-03T19:20:06.459Z,18.72
2023-09-03T19:23:12.868Z,18.60
2023-09-03T19:26:16.077Z,18.55
2023-09-03T19:29:20.017Z,18.50
2023-09-03T19:32:22.889Z,18.43
2023-09-03T19:35:25.677Z,18.31
2023-09-03T19:38:35.106Z,18.26
2023-09-03T19:41:38.659Z,18.23
2023-09-03T19:44:41.409Z,18.23
2023-09-03T19:47:46.576Z,18.13
2023-09-03T19:50:49.839Z,17.99
2023-09-03T19:53:54.880Z,17.89
2023-09-03T19:56:57.869Z,17.83
2023-09-03T20:00:00.635Z,17.80
2023-09-03T20:03:03.696Z,17.81
2023-09-03T20:06:06.596Z,17.79
2023-09-03T20:09:10.812Z,17.69
2023-09-03T20:12:13.754Z,17.63
2023-09-03T20:15:19.537Z,17.47
2023-09-03T20:18:24.350Z,17.44
2023-09-03T20:21:27.383Z,17.43
2023-09-03T20:24:32.225Z,17.35
2023-09-03T20:27:35.139Z,17.32
2023-09-03T20:30:38.002Z,17.33
2023-09-03T20:33:40.841Z,17.34
2023-09-03T20:36:43.612Z,17.18
2023-09-03T20:39:50.235Z,17.16
2023-09-03T20:42:53.270Z,17.12
2023-09-03T20:45:58.528Z,17.02
2023-09-03T20:49:04.641Z,17.00
2023-09-03T20:52:08.737Z,17.01
2023-09-03T20:55:12.969Z,16.95
2023-09-03T20:58:15.823Z,16.97
2023-09-03T21:01:18.562Z,16.86
2023-09-03T21:04:21.539Z,16.72
2023-09-03T21:07:24.404Z,16.62
2023-09-03T21:10:29.338Z,16.58
2023-09-03T21:13:32.457Z,16.59
2023-09-03T21:16:35.263Z,16.58
2023-09-03T21:19:38.186Z,16.59
2023-09-03T21:22:41.909Z,16.61
2023-09-03T21:25:46.166Z,16.63
2023-09-03T21:28:49.094Z,16.59
2023-09-03T21:31:52.526Z,16.53
2023-09-03T21:34:55.640Z,16.47
2023-09-03T21:38:00.578Z,16.37
2023-09-03T21:41:11.324Z,16.41
2023-09-03T21:44:14.981Z,16.33
2023-09-03T21:47:17.733Z,16.34
2023-09-03T21:50:20.579Z,16.30
2023-09-03T21:53:23.303Z,16.25
2023-09-03T21:56:27.670Z,16.28
2023-09-03T21:59:30.399Z,16.23
2023-09-03T22:02:33.197Z,15.99
2023-09-03T22:05:36.424Z,15.95
2023-09-03T22:08:39.133Z,15.96
2023-09-03T22:11:43.364Z,15.93
2023-09-03T22:14:46.200Z,15.90
2023-09-03T22:17:49.132Z,15.91
2023-09-03T22:20:52.068Z,15.91
2023-09-03T22:23:54.835Z,15.90
2023-09-03T22:26:59.088Z,15.91
2023-09-03T22:30:01.965Z,15.91
2023-09-03T22:33:05.341Z,15.87
2023-09-03T22:36:08.325Z,15.82
2023-09-03T22:39:11.918Z,15.81
2023-09-03T22:42:16.159Z,15.74
2023-09-03T22:45:19.320Z,15.71
2023-09-03T22:48:22.502Z,15.68
2023-09-03T22:51:25.963Z,15.67
2023-09-03T22:54:28.694Z,15.54
2023-09-03T22:57:32.961Z,15.47
2023-09-03T23:00:35.804Z,15.48
2023-09-03T23:03:38.675Z,15.48
2023-09-03T23:06:41.545Z,15.50
2023-09-03T23:09:44.260Z,15.50
2023-09-03T23:12:48.546Z,15.44
2023-09-03T23:15:51.414Z,15.29
2023-09-03T23:18:54.199Z,15.22
2023-09-03T23:21:57.034Z,15.20
2023-09-03T23:24:59.770Z,15.18
2023-09-03T23:28:04.346Z,15.15
2023-09-03T23:31:07.578Z,15.14
2023-09-03T23:34:10.338Z,15.13
2023-09-03T23:37:13.189Z,15.17
2023-09-03T23:40:16.076Z,15.21
2023-09-03T23:43:20.331Z,15.24
2023-09-03T23:46:23.359Z,15.19
2023-09-03T23:49:26.709Z,15.20
2023-09-03T23:52:29.562Z,15.19
2023-09-03T23:55:32.279Z,15.14
2023-09-03T23:58:36.473Z,15.08
